createdAt,value
2023-03-29T00:02:07.417Z,99439.09
2023-03-29T00:04:34.760Z,99429.06
2023-03-29T00:07:06.072Z,99439.25
2023-03-29T00:09:33.501Z,99427.06
2023-03-29T00:12:01.602Z,99427.41
2023-03-29T00:14:30.920Z,99431.09
2023-03-29T00:16:58.593Z,99426.09
2023-03-29T00:19:25.608Z,99427.78
2023-03-29T00:21:52.532Z,99426.28
2023-03-29T00:24:21.148Z,99433.28
2023-03-29T00:26:48.431Z,99424.31
2023-03-29T00:29:15.660Z,99426.50
2023-03-29T00:31:44.506Z,99422.97
2023-03-29T00:34:11.741Z,99423.47
2023-03-29T00:36:40.565Z,99417.13
2023-03-29T00:39:07.617Z,99417.47
2023-03-29T00:41:34.503Z,99412.13
2023-03-29T00:44:03.958Z,99410.81
2023-03-29T00:46:32.030Z,99414.84
2023-03-29T00:49:03.958Z,99408.84
2023-03-29T00:51:34.378Z,99414.00
2023-03-29T00:54:04.150Z,99412.69
2023-03-29T00:56:39.919Z,99419.69
2023-03-29T00:59:27.954Z,99422.19
2023-03-29T01:02:02.243Z,99422.25
2023-03-29T01:04:36.958Z,99426.75
2023-03-29T01:07:30.864Z,99421.41
2023-03-29T01:10:19.537Z,99420.75
2023-03-29T01:12:51.763Z,99416.41
2023-03-29T01:15:22.426Z,99413.72
2023-03-29T01:17:50.997Z,99411.22
2023-03-29T01:20:23.947Z,99410.06
2023-03-29T01:23:21.363Z,99410.75
2023-03-29T01:25:54.166Z,99403.88
2023-03-29T01:28:35.382Z,99410.88
2023-03-29T01:31:16.075Z,99412.72
2023-03-29T01:33:47.589Z,99409.56
2023-03-29T01:36:20.264Z,99408.72
2023-03-29T01:38:52.873Z,99401.22
2023-03-29T01:41:20.255Z,99400.88
2023-03-29T01:44:02.312Z,99404.22
2023-03-29T01:46:38.551Z,99398.87
2023-03-29T01:49:23.487Z,99388.69
2023-03-29T01:52:01.594Z,99383.00
2023-03-29T01:54:33.765Z,99390.56
2023-03-29T01:57:04.870Z,99385.22
2023-03-29T01:59:37.024Z,99387.91
2023-03-29T02:02:08.322Z,99384.56
2023-03-29T02:04:40.055Z,99394.06
2023-03-29T02:07:09.170Z,99383.56
2023-03-29T02:09:38.474Z,99391.09
2023-03-29T02:12:07.308Z,99401.09
2023-03-29T02:14:34.121Z,99397.91
2023-03-29T02:17:30.638Z,99396.25
2023-03-29T02:20:14.696Z,99401.59
2023-03-29T02:23:04.704Z,99400.75
2023-03-29T02:25:32.639Z,99399.91
2023-03-29T02:27:59.986Z,99394.25
2023-03-29T02:30:42.361Z,99404.78
2023-03-29T02:33:24.049Z,99407.63
2023-03-29T02:35:59.240Z,99403.78
2023-03-29T02:38:27.898Z,99403.12
2023-03-29T02:40:56.834Z,99402.12
2023-03-29T02:43:26.021Z,99399.94
2023-03-29T02:45:53.861Z,99395.12
2023-03-29T02:48:23.592Z,99397.44
2023-03-29T02:50:55.871Z,99398.28
2023-03-29T02:53:29.018Z,99404.44
2023-03-29T02:55:55.992Z,99398.44
2023-03-29T02:58:26.661Z,99403.78
2023-03-29T03:00:53.962Z,99402.28
2023-03-29T03:03:20.916Z,99409.28
2023-03-29T03:05:49.076Z,99407.63
2023-03-29T03:08:15.892Z,99411.31
2023-03-29T03:10:43.183Z,99411.31
2023-03-29T03:13:09.992Z,99410.28
2023-03-29T03:15:37.388Z,99409.47
2023-03-29T03:18:04.506Z,99400.63
2023-03-29T03:20:31.336Z,99397.78
2023-03-29T03:22:58.606Z,99402.28
2023-03-29T03:25:25.450Z,99395.44
2023-03-29T03:27:52.418Z,99399.97
2023-03-29T03:30:19.397Z,99401.78
2023-03-29T03:32:46.400Z,99406.31
2023-03-29T03:35:13.798Z,99399.97
2023-03-29T03:37:40.956Z,99399.28
2023-03-29T03:40:09.333Z,99396.28
2023-03-29T03:42:36.076Z,99398.94
2023-03-29T03:45:03.042Z,99396.28
2023-03-29T03:47:30.835Z,99406.63
2023-03-29T03:49:57.596Z,99403.28
2023-03-29T03:52:24.636Z,99401.28
2023-03-29T03:54:51.814Z,99393.28
2023-03-29T03:57:18.828Z,99398.94
2023-03-29T03:59:45.643Z,99395.44
2023-03-29T04:02:12.397Z,99405.28
2023-03-29T04:04:40.610Z,99399.47
2023-03-29T04:07:07.489Z,99392.94
2023-03-29T04:09:34.628Z,99385.09
2023-03-29T04:12:01.726Z,99377.59
2023-03-29T04:14:28.691Z,99377.94
2023-03-29T04:16:55.756Z,99370.94
2023-03-29T04:19:23.141Z,99371.75
2023-03-29T04:21:51.295Z,99364.41
2023-03-29T04:24:18.247Z,99361.09
2023-03-29T04:26:45.154Z,99366.25
2023-03-29T04:29:11.928Z,99370.94
2023-03-29T04:31:38.869Z,99373.59
2023-03-29T04:34:05.634Z,99368.59
2023-03-29T04:36:32.823Z,99372.59
2023-03-29T04:39:01.744Z,99370.78
2023-03-29T04:41:29.069Z,99373.28
2023-03-29T04:43:56.365Z,99373.94
2023-03-29T04:46:26.656Z,99374.78
2023-03-29T04:48:54.225Z,99373.75
2023-03-29T04:51:22.443Z,99370.94
2023-03-29T04:53:53.151Z,99367.09
2023-03-29T04:56:19.994Z,99369.59
2023-03-29T04:58:46.856Z,99357.72
2023-03-29T05:01:13.646Z,99357.38
2023-03-29T05:03:40.405Z,99355.38
2023-03-29T05:06:09.978Z,99343.56
2023-03-29T05:08:39.317Z,99343.22
2023-03-29T05:11:08.305Z,99349.22
2023-03-29T05:13:35.511Z,99335.88
2023-03-29T05:16:02.775Z,99346.22
2023-03-29T05:18:30.198Z,99343.53
2023-03-29T05:20:58.626Z,99332.50
2023-03-29T05:23:26.580Z,99329.50
2023-03-29T05:25:53.743Z,99327.47
2023-03-29T05:28:20.838Z,99328.16
2023-03-29T05:30:48.584Z,99319.78
2023-03-29T05:33:15.384Z,99323.13
2023-03-29T05:35:42.252Z,99325.47
2023-03-29T05:38:09.072Z,99332.31
2023-03-29T05:40:36.000Z,99342.81
2023-03-29T05:43:03.112Z,99337.13
2023-03-29T05:45:30.198Z,99336.63
2023-03-29T05:47:57.756Z,99337.28
2023-03-29T05:50:24.863Z,99334.78
2023-03-29T05:52:51.706Z,99338.75
2023-03-29T05:55:18.573Z,99343.94
2023-03-29T05:57:45.401Z,99339.25
2023-03-29T06:00:25.648Z,99344.09
2023-03-29T06:02:52.850Z,99341.25
2023-03-29T06:05:20.200Z,99340.06
2023-03-29T06:07:48.875Z,99344.41
2023-03-29T06:10:15.927Z,99338.72
2023-03-29T06:12:42.672Z,99328.03
2023-03-29T06:15:10.317Z,99330.34
2023-03-29T06:17:37.159Z,99321.31
2023-03-29T06:20:09.161Z,99324.81
2023-03-29T06:22:36.685Z,99329.66
2023-03-29T06:25:04.788Z,99331.13
2023-03-29T06:27:32.915Z,99338.66
2023-03-29T06:30:00.738Z,99335.63
2023-03-29T06:32:28.179Z,99327.44
2023-03-29T06:34:55.461Z,99331.41
2023-03-29T06:37:23.341Z,99329.06
2023-03-29T06:39:53.896Z,99334.69
2023-03-29T06:42:21.803Z,99330.50
2023-03-29T06:44:49.686Z,99332.47
2023-03-29T06:47:17.357Z,99323.09
2023-03-29T06:49:44.552Z,99324.22
2023-03-29T06:52:11.553Z,99327.03
2023-03-29T06:54:38.956Z,99325.50
2023-03-29T06:57:05.810Z,99324.78
2023-03-29T06:59:33.444Z,99326.53
2023-03-29T07:02:00.321Z,99324.00
2023-03-29T07:04:27.141Z,99321.44
2023-03-29T07:07:01.736Z,99324.88
2023-03-29T07:09:30.400Z,99320.47
2023-03-29T07:11:58.243Z,99320.22
2023-03-29T07:14:28.668Z,99320.31
2023-03-29T07:16:56.888Z,99324.59
2023-03-29T07:19:25.332Z,99328.03
2023-03-29T07:21:53.410Z,99315.56
2023-03-29T07:24:21.433Z,99318.16
2023-03-29T07:27:00.226Z,99320.56
2023-03-29T07:29:30.531Z,99320.50
2023-03-29T07:31:57.345Z,99316.88
2023-03-29T07:34:24.483Z,99317.78
2023-03-29T07:36:51.689Z,99324.91
2023-03-29T07:39:18.864Z,99333.88
2023-03-29T07:41:45.618Z,99325.72
2023-03-29T07:44:12.486Z,99330.34
2023-03-29T07:46:39.258Z,99321.56
2023-03-29T07:49:08.203Z,99317.28
2023-03-29T07:51:36.676Z,99328.09
2023-03-29T07:54:03.893Z,99317.44
2023-03-29T07:56:30.676Z,99322.25
2023-03-29T07:58:57.643Z,99311.78
2023-03-29T08:01:24.878Z,99311.19
2023-03-29T08:03:52.260Z,99319.50
2023-03-29T08:06:19.220Z,99318.94
2023-03-29T08:08:46.354Z,99313.00
2023-03-29T08:11:14.221Z,99323.19
2023-03-29T08:13:41.038Z,99324.44
2023-03-29T08:16:08.980Z,99323.03
2023-03-29T08:18:35.796Z,99317.09
2023-03-29T08:21:03.050Z,99310.50
2023-03-29T08:23:30.052Z,99311.59
2023-03-29T08:25:56.792Z,99316.63
2023-03-29T08:28:23.575Z,99322.69
2023-03-29T08:30:50.401Z,99322.97
2023-03-29T08:33:17.332Z,99317.00
2023-03-29T08:35:44.185Z,99327.38
2023-03-29T08:38:11.302Z,99320.56
2023-03-29T08:40:38.337Z,99324.53
2023-03-29T08:43:26.590Z,99318.97
2023-03-29T08:46:00.154Z,99317.56
2023-03-29T08:48:44.183Z,99318.25
2023-03-29T08:51:16.957Z,99325.31
2023-03-29T08:53:53.960Z,99313.59
2023-03-29T08:56:27.098Z,99314.25
2023-03-29T08:58:55.962Z,99313.25
2023-03-29T09:01:24.327Z,99320.75
2023-03-29T09:03:54.050Z,99320.78
2023-03-29T09:06:22.149Z,99314.81
2023-03-29T09:08:51.116Z,99311.94
2023-03-29T09:11:23.628Z,99311.38
2023-03-29T09:14:19.421Z,99306.41
2023-03-29T09:17:04.216Z,99307.66
2023-03-29T09:19:40.062Z,99303.34
2023-03-29T09:22:12.226Z,99310.81
2023-03-29T09:25:00.947Z,99305.84
2023-03-29T09:27:47.693Z,99305.63
2023-03-29T09:30:19.325Z,99310.44
2023-03-29T09:33:15.510Z,99312.72
2023-03-29T09:35:53.577Z,99310.66
2023-03-29T09:38:22.196Z,99306.72
2023-03-29T09:40:56.809Z,99299.91
2023-03-29T09:43:34.263Z,99306.53
2023-03-29T09:46:05.018Z,99310.72
2023-03-29T09:48:38.426Z,99310.34
2023-03-29T09:51:07.953Z,99310.75
2023-03-29T09:53:34.944Z,99315.53
2023-03-29T09:56:02.396Z,99313.25
2023-03-29T09:58:31.784Z,99312.84
2023-03-29T10:01:00.742Z,99310.78
2023-03-29T10:03:30.118Z,99310.97
2023-03-29T10:06:00.058Z,99306.87
2023-03-29T10:08:35.851Z,99299.00
2023-03-29T10:11:23.520Z,99304.59
2023-03-29T10:13:57.468Z,99297.53
2023-03-29T10:16:37.038Z,99309.59
2023-03-29T10:19:15.442Z,99301.09
2023-03-29T10:21:42.427Z,99305.66
2023-03-29T10:24:10.312Z,99303.38
2023-03-29T10:26:39.078Z,99294.88
2023-03-29T10:29:07.528Z,99297.97
2023-03-29T10:31:38.194Z,99287.41
2023-03-29T10:34:06.994Z,99290.94
2023-03-29T10:36:34.426Z,99283.87
2023-03-29T10:39:06.022Z,99277.00
2023-03-29T10:41:35.185Z,99276.19
2023-03-29T10:44:03.599Z,99272.88
2023-03-29T10:46:33.646Z,99272.00
2023-03-29T10:49:05.945Z,99259.53
2023-03-29T10:51:34.264Z,99265.97
2023-03-29T10:54:02.386Z,99269.69
2023-03-29T10:56:31.794Z,99277.56
2023-03-29T10:59:22.810Z,99277.75
2023-03-29T11:02:17.759Z,99272.75
2023-03-29T11:04:49.234Z,99278.28
2023-03-29T11:07:37.975Z,99279.09
2023-03-29T11:10:24.866Z,99281.38
2023-03-29T11:13:29.017Z,99277.00
2023-03-29T11:16:09.669Z,99284.00
2023-03-29T11:18:45.442Z,99269.84
2023-03-29T11:21:36.153Z,99264.84
2023-03-29T11:24:17.835Z,99254.47
2023-03-29T11:27:23.233Z,99256.50
2023-03-29T11:29:49.915Z,99249.41
2023-03-29T11:32:31.672Z,99247.25
2023-03-29T11:35:07.288Z,99234.31
2023-03-29T11:37:51.225Z,99230.72
2023-03-29T11:40:55.466Z,99233.59
2023-03-29T11:43:34.201Z,99231.69
2023-03-29T11:46:04.080Z,99230.84
2023-03-29T11:48:39.653Z,99223.94
2023-03-29T11:51:13.301Z,99227.03
2023-03-29T11:54:03.114Z,99223.66
2023-03-29T11:56:36.141Z,99203.25
2023-03-29T11:59:13.653Z,99204.44
2023-03-29T12:01:48.157Z,99204.84
2023-03-29T12:04:38.647Z,99206.88
2023-03-29T12:07:42.350Z,99209.13
2023-03-29T12:10:17.898Z,99213.03
2023-03-29T12:13:03.303Z,99202.19
2023-03-29T12:15:35.247Z,99199.03
2023-03-29T12:18:22.991Z,99204.03
2023-03-29T12:21:02.001Z,99201.72
2023-03-29T12:23:31.966Z,99209.37
2023-03-29T12:26:29.361Z,99205.84
2023-03-29T12:29:05.367Z,99205.63
2023-03-29T12:31:32.649Z,99204.56
2023-03-29T12:34:05.346Z,99197.50
2023-03-29T12:37:17.295Z,99189.59
2023-03-29T12:39:44.690Z,99187.13
2023-03-29T12:42:21.079Z,99185.47
2023-03-29T12:44:58.783Z,99193.00
2023-03-29T12:47:37.465Z,99187.81
2023-03-29T12:50:04.830Z,99188.03
2023-03-29T12:52:34.652Z,99186.34
2023-03-29T12:55:17.841Z,99176.56
2023-03-29T12:57:57.718Z,99177.41
2023-03-29T13:00:42.791Z,99169.28
2023-03-29T13:03:30.243Z,99170.34
2023-03-29T13:06:02.760Z,99174.09
2023-03-29T13:08:41.162Z,99169.75
2023-03-29T13:11:23.922Z,99170.78
2023-03-29T13:13:52.340Z,99169.13
2023-03-29T13:16:33.020Z,99171.03
2023-03-29T13:19:31.048Z,99171.84
2023-03-29T13:22:16.721Z,99162.91
2023-03-29T13:24:55.641Z,99161.25
2023-03-29T13:27:45.476Z,99165.59
2023-03-29T13:30:29.933Z,99165.59
2023-03-29T13:33:18.398Z,99161.25
2023-03-29T13:36:08.707Z,99155.63
2023-03-29T13:38:48.870Z,99163.13
2023-03-29T13:41:24.646Z,99152.53
2023-03-29T13:43:56.077Z,99148.78
2023-03-29T13:46:41.421Z,99139.84
2023-03-29T13:49:29.474Z,99152.31
2023-03-29T13:52:13.336Z,99149.59
2023-03-29T13:54:54.831Z,99144.41
2023-03-29T13:57:43.657Z,99139.00
2023-03-29T14:00:28.688Z,99143.59
2023-03-29T14:03:01.486Z,99133.59
2023-03-29T14:05:44.377Z,99129.84
2023-03-29T14:08:21.892Z,99126.91
2023-03-29T14:10:49.236Z,99131.28
2023-03-29T14:13:20.475Z,99125.84
2023-03-29T14:15:57.330Z,99132.91
2023-03-29T14:18:27.637Z,99129.16
2023-03-29T14:20:55.717Z,99130.81
2023-03-29T14:23:30.279Z,99121.66
2023-03-29T14:26:07.831Z,99124.34
2023-03-29T14:28:34.603Z,99120.41
2023-03-29T14:31:01.654Z,99123.09
2023-03-29T14:33:38.111Z,99117.69
2023-03-29T14:36:05.840Z,99117.47
2023-03-29T14:38:36.540Z,99119.13
2023-03-29T14:41:03.697Z,99104.53
2023-03-29T14:43:32.203Z,99107.25
2023-03-29T14:46:07.609Z,99096.19
2023-03-29T14:48:35.717Z,99101.59
2023-03-29T14:51:02.996Z,99099.72
2023-03-29T14:53:32.353Z,99096.78
2023-03-29T14:55:59.542Z,99094.06
2023-03-29T14:58:32.803Z,99094.06
2023-03-29T15:01:14.057Z,99084.91
2023-03-29T15:03:44.662Z,99096.56
2023-03-29T15:06:13.255Z,99094.69
2023-03-29T15:08:50.825Z,99097.38
2023-03-29T15:11:27.978Z,99095.50
2023-03-29T15:14:02.535Z,99083.84
2023-03-29T15:16:30.609Z,99085.50
2023-03-29T15:18:58.229Z,99075.50
2023-03-29T15:21:28.777Z,99075.50
2023-03-29T15:23:58.397Z,99072.81
2023-03-29T15:26:27.768Z,99073.63
2023-03-29T15:29:25.950Z,99060.91
2023-03-29T15:31:57.119Z,99058.44
2023-03-29T15:34:31.899Z,99059.28
2023-03-29T15:36:59.509Z,99056.56
2023-03-29T15:39:27.950Z,99047.63
2023-03-29T15:41:56.880Z,99052.81
2023-03-29T15:44:29.402Z,99049.28
2023-03-29T15:46:57.806Z,99051.16
2023-03-29T15:49:25.145Z,99051.16
2023-03-29T15:51:55.888Z,99048.44
2023-03-29T15:54:24.770Z,99050.31
2023-03-29T15:57:14.935Z,99049.28
2023-03-29T15:59:43.544Z,99039.50
2023-03-29T16:02:17.835Z,99038.69
2023-03-29T16:04:44.709Z,99044.91
2023-03-29T16:07:15.332Z,99034.31
2023-03-29T16:09:42.802Z,99038.91
2023-03-29T16:12:10.446Z,99037.03
2023-03-29T16:14:37.234Z,99035.16
2023-03-29T16:17:04.768Z,99043.28
2023-03-29T16:19:33.184Z,99035.16
2023-03-29T16:22:02.954Z,99036.19
2023-03-29T16:24:32.177Z,99031.63
2023-03-29T16:26:59.966Z,99032.66
2023-03-29T16:29:27.531Z,99033.72
2023-03-29T16:31:55.011Z,99033.72
2023-03-29T16:34:22.837Z,99040.19
2023-03-29T16:36:50.187Z,99032.31
2023-03-29T16:39:18.304Z,99022.53
2023-03-29T16:41:48.450Z,99026.06
2023-03-29T16:44:23.782Z,99030.88
2023-03-29T16:46:54.146Z,99029.84
2023-03-29T16:49:21.641Z,99028.19
2023-03-29T16:51:48.615Z,99026.72
2023-03-29T16:54:19.658Z,99031.31
2023-03-29T16:56:46.945Z,99027.78
2023-03-29T16:59:14.215Z,99028.00
2023-03-29T17:01:41.313Z,99024.25
2023-03-29T17:04:09.341Z,99018.25
2023-03-29T17:06:36.860Z,99014.94
2023-03-29T17:09:05.304Z,99021.41
2023-03-29T17:11:32.349Z,99022.47
2023-03-29T17:14:00.128Z,99031.41
2023-03-29T17:16:28.951Z,99033.06
2023-03-29T17:19:00.600Z,99026.59
2023-03-29T17:21:29.618Z,99034.13
2023-03-29T17:23:57.024Z,99031.63
2023-03-29T17:26:23.898Z,99020.81
2023-03-29T17:28:51.007Z,99013.75
2023-03-29T17:31:19.495Z,99021.28
2023-03-29T17:33:47.561Z,99020.69
2023-03-29T17:36:14.946Z,99019.50
2023-03-29T17:38:43.054Z,99023.84
2023-03-29T17:41:11.525Z,99011.38
2023-03-29T17:43:38.776Z,99021.38
2023-03-29T17:46:06.559Z,99027.25
2023-03-29T17:48:33.807Z,99032.03
2023-03-29T17:51:01.349Z,99039.75
2023-03-29T17:53:28.601Z,99035.63
2023-03-29T17:55:55.953Z,99031.28
2023-03-29T17:58:24.883Z,99032.94
2023-03-29T18:00:52.146Z,99033.97
2023-03-29T18:03:19.961Z,99038.56
2023-03-29T18:05:47.367Z,99033.97
2023-03-29T18:08:15.428Z,99034.81
2023-03-29T18:10:43.666Z,99038.78
2023-03-29T18:13:14.005Z,99040.91
2023-03-29T18:15:45.773Z,99049.00
2023-03-29T18:18:13.352Z,99046.91
2023-03-29T18:20:40.459Z,99044.19
2023-03-29T18:23:07.566Z,99052.78
2023-03-29T18:25:35.075Z,99059.00
2023-03-29T18:28:02.817Z,99052.78
2023-03-29T18:30:30.979Z,99055.69
2023-03-29T18:32:58.903Z,99056.97
2023-03-29T18:35:26.725Z,99059.44
2023-03-29T18:37:55.373Z,99058.63
2023-03-29T18:40:25.083Z,99051.56
2023-03-29T18:42:52.926Z,99052.62
2023-03-29T18:45:21.479Z,99056.34
2023-03-29T18:47:52.867Z,99054.69
2023-03-29T18:50:20.691Z,99053.28
2023-03-29T18:52:48.839Z,99071.97
2023-03-29T18:55:16.305Z,99062.44
2023-03-29T18:57:44.399Z,99060.75
2023-03-29T19:00:15.254Z,99056.41
2023-03-29T19:02:42.647Z,99061.81
2023-03-29T19:05:10.981Z,99059.94
2023-03-29T19:07:38.718Z,99060.59
2023-03-29T19:10:09.061Z,99055.41
2023-03-29T19:12:36.419Z,99050.25
2023-03-29T19:15:04.002Z,99049.88
2023-03-29T19:17:31.346Z,99056.94
2023-03-29T19:19:59.221Z,99055.87
2023-03-29T19:22:27.321Z,99057.16
2023-03-29T19:24:54.932Z,99055.28
2023-03-29T19:27:23.770Z,99059.41
2023-03-29T19:29:51.601Z,99055.87
2023-03-29T19:32:19.220Z,99054.00
2023-03-29T19:34:47.708Z,99052.34
2023-03-29T19:37:16.307Z,99039.66
2023-03-29T19:39:45.583Z,99059.62
2023-03-29T19:42:13.562Z,99049.66
2023-03-29T19:44:41.487Z,99048.81
2023-03-29T19:47:08.763Z,99055.50
2023-03-29T19:49:39.019Z,99054.44
2023-03-29T19:52:06.904Z,99063.59
2023-03-29T19:54:34.405Z,99064.66
2023-03-29T19:57:02.327Z,99059.69
2023-03-29T19:59:31.306Z,99062.41
2023-03-29T20:01:58.335Z,99069.69
2023-03-29T20:04:29.004Z,99065.09
2023-03-29T20:06:57.711Z,99059.69
2023-03-29T20:09:24.571Z,99055.94
2023-03-29T20:11:51.523Z,99056.19
2023-03-29T20:14:18.910Z,99048.66
2023-03-29T20:16:46.312Z,99052.66
2023-03-29T20:19:17.976Z,99056.19
2023-03-29T20:21:44.902Z,99064.06
2023-03-29T20:24:12.000Z,99063.47
2023-03-29T20:26:39.098Z,99063.22
2023-03-29T20:29:06.333Z,99060.53
2023-03-29T20:31:33.263Z,99058.88
2023-03-29T20:34:00.321Z,99047.25
2023-03-29T20:36:30.790Z,99062.63
2023-03-29T20:38:59.376Z,99053.69
2023-03-29T20:41:26.339Z,99055.56
2023-03-29T20:43:58.519Z,99053.47
2023-03-29T20:46:35.757Z,99039.13
2023-03-29T20:49:05.812Z,99039.97
2023-03-29T20:51:33.083Z,99036.44
2023-03-29T20:54:04.952Z,99027.50
2023-03-29T20:56:33.962Z,99021.88
2023-03-29T20:59:01.588Z,99020.81
2023-03-29T21:01:30.195Z,99024.56
2023-03-29T21:03:57.135Z,99003.19
2023-03-29T21:06:24.474Z,99006.72
2023-03-29T21:08:52.578Z,99011.06
2023-03-29T21:11:21.067Z,99007.31
2023-03-29T21:13:47.838Z,99002.72
2023-03-29T21:16:14.685Z,98998.97
2023-03-29T21:18:41.710Z,98998.16
2023-03-29T21:21:10.488Z,99001.31
2023-03-29T21:23:38.058Z,98992.97
2023-03-29T21:26:07.352Z,98994.03
2023-03-29T21:28:34.800Z,98975.94
2023-03-29T21:31:05.849Z,98978.84
2023-03-29T21:33:32.934Z,98979.69
2023-03-29T21:36:00.677Z,98976.97
2023-03-29T21:38:28.151Z,98978.63
2023-03-29T21:40:54.882Z,98976.97
2023-03-29T21:43:21.753Z,98974.28
2023-03-29T21:45:49.932Z,98964.75
2023-03-29T21:48:17.753Z,98968.06
2023-03-29T21:50:48.183Z,98964.75
2023-03-29T21:53:14.906Z,98959.34
2023-03-29T21:55:41.698Z,98956.25
2023-03-29T21:58:08.501Z,98956.25
2023-03-29T22:00:35.838Z,98958.13
2023-03-29T22:03:02.651Z,98951.66
2023-03-29T22:05:29.505Z,98955.63
2023-03-29T22:07:58.778Z,98960.44
2023-03-29T22:10:25.590Z,98949.87
2023-03-29T22:12:52.662Z,98949.63
2023-03-29T22:15:22.493Z,98954.69
2023-03-29T22:17:50.453Z,98955.72
2023-03-29T22:20:18.567Z,98954.06
2023-03-29T22:22:50.463Z,98948.75
2023-03-29T22:25:19.245Z,98947.09
2023-03-29T22:27:47.908Z,98945.69
2023-03-29T22:30:16.209Z,98941.56
2023-03-29T22:32:43.327Z,98934.47
2023-03-29T22:35:10.834Z,98927.66
2023-03-29T22:37:42.065Z,98929.97
2023-03-29T22:40:11.029Z,98929.38
2023-03-29T22:42:38.173Z,98927.94
2023-03-29T22:45:06.547Z,98925.09
2023-03-29T22:47:34.166Z,98929.06
2023-03-29T22:50:01.218Z,98909.16
2023-03-29T22:52:28.107Z,98916.44
2023-03-29T22:54:54.888Z,98915.84
2023-03-29T22:57:21.682Z,98919.81
2023-03-29T22:59:48.556Z,98916.75
2023-03-29T23:02:15.600Z,98919.91
2023-03-29T23:04:42.497Z,98925.50
2023-03-29T23:07:09.293Z,98917.19
2023-03-29T23:09:36.047Z,98916.38
2023-03-29T23:12:02.806Z,98919.75
2023-03-29T23:14:29.561Z,98913.28
2023-03-29T23:16:56.333Z,98917.63
2023-03-29T23:19:23.078Z,98907.66
2023-03-29T23:24:34.089Z,98900.41
2023-03-29T23:27:01.301Z,98900.41
2023-03-29T23:29:28.189Z,98895.22
2023-03-29T23:31:56.932Z,98890.88
2023-03-29T23:34:23.749Z,98896.28
2023-03-29T23:36:50.594Z,98892.97
2023-03-29T23:39:17.450Z,98890.28
2023-03-29T23:41:44.163Z,98891.69
2023-03-29T23:44:10.961Z,98887.94
2023-03-29T23:46:37.748Z,98890.03
2023-03-29T23:49:04.670Z,98891.78
2023-03-29T23:51:31.374Z,98885.97
2023-03-29T23:53:58.124Z,98885.00
2023-03-29T23:56:24.988Z,98879.81
2023-03-29T23:58:51.853Z,98882.50
